createdAt,value
2018-11-06T00:00:41.828Z,44.03
2018-11-06T00:03:16.658Z,42.23
2018-11-06T00:05:46.651Z,43.03
2018-11-06T00:08:17.323Z,42.43
2018-11-06T00:10:48.068Z,43.70
2018-11-06T00:13:18.863Z,43.13
2018-11-06T00:15:49.638Z,43.20
2018-11-06T00:18:19.746Z,41.97
2018-11-06T00:20:49.953Z,45.17
2018-11-06T00:23:20.092Z,42.93
2018-11-06T00:25:50.182Z,45.27
2018-11-06T00:28:19.955Z,46.63
2018-11-06T00:30:49.879Z,43.73
2018-11-06T00:33:20.447Z,43.47
2018-11-06T00:35:50.220Z,42.00
2018-11-06T00:38:20.154Z,41.20
2018-11-06T00:40:50.810Z,41.40
2018-11-06T00:43:20.615Z,42.13
2018-11-06T00:45:50.369Z,40.80
2018-11-06T00:48:20.191Z,42.87
2018-11-06T00:50:50.218Z,43.37
2018-11-06T00:53:20.666Z,42.60
2018-11-06T00:55:51.117Z,44.07
2018-11-06T00:58:20.785Z,43.67
2018-11-06T01:00:50.511Z,43.37
2018-11-06T01:03:20.545Z,46.70
2018-11-06T01:05:51.520Z,45.03
2018-11-06T01:08:21.740Z,44.83
2018-11-06T01:10:51.855Z,44.30
2018-11-06T01:13:22.156Z,44.30
2018-11-06T01:15:52.276Z,45.47
2018-11-06T01:18:22.334Z,45.30
2018-11-06T01:20:59.725Z,44.67
2018-11-06T01:23:29.857Z,43.47
2018-11-06T01:25:59.885Z,43.03
2018-11-06T01:28:29.945Z,44.80
2018-11-06T01:31:00.355Z,44.20
2018-11-06T01:33:30.489Z,42.33
2018-11-06T01:36:00.895Z,43.43
2018-11-06T01:38:30.620Z,40.60
2018-11-06T01:41:01.194Z,41.17
2018-11-06T01:43:31.215Z,40.00
2018-11-06T01:46:01.504Z,39.67
2018-11-06T01:48:31.534Z,44.87
2018-11-06T01:51:01.763Z,42.50
2018-11-06T01:53:31.428Z,47.90
2018-11-06T01:56:01.250Z,47.17
2018-11-06T01:58:30.991Z,45.13
2018-11-06T02:01:00.736Z,45.00
2018-11-06T02:03:30.740Z,44.53
2018-11-06T02:06:00.530Z,42.60
2018-11-06T02:08:30.310Z,42.63
2018-11-06T02:11:00.106Z,44.10
2018-11-06T02:13:29.943Z,46.17
2018-11-06T02:15:59.788Z,42.60
2018-11-06T02:18:30.319Z,44.73
2018-11-06T02:21:00.804Z,45.30
2018-11-06T02:23:30.643Z,45.93
2018-11-06T02:26:00.679Z,45.73
2018-11-06T02:28:30.857Z,47.93
2018-11-06T02:31:00.949Z,47.20
2018-11-06T02:33:30.862Z,48.40
2018-11-06T02:36:01.462Z,46.20
2018-11-06T02:38:31.143Z,44.17
2018-11-06T02:41:00.930Z,45.97
2018-11-06T02:43:30.684Z,48.87
2018-11-06T02:46:01.239Z,47.53
2018-11-06T02:48:31.739Z,50.50
2018-11-06T02:51:01.741Z,45.13
2018-11-06T02:53:31.925Z,46.03
2018-11-06T02:56:02.211Z,46.77
2018-11-06T02:58:32.149Z,44.97
2018-11-06T03:01:01.999Z,47.00
2018-11-06T03:03:37.024Z,45.33
2018-11-06T03:06:06.805Z,42.93
2018-11-06T03:08:36.928Z,43.43
2018-11-06T03:11:07.196Z,44.33
2018-11-06T03:13:37.038Z,42.93
2018-11-06T03:16:07.465Z,44.03
2018-11-06T03:18:37.741Z,43.43
2018-11-06T03:21:07.571Z,43.10
2018-11-06T03:23:37.309Z,42.53
2018-11-06T03:26:07.259Z,45.73
2018-11-06T03:28:36.938Z,43.13
2018-11-06T03:31:06.742Z,41.90
2018-11-06T03:33:37.108Z,41.37
2018-11-06T03:36:07.212Z,42.80
2018-11-06T03:38:37.114Z,42.13
2018-11-06T03:41:07.174Z,42.47
2018-11-06T03:43:37.034Z,43.67
2018-11-06T03:46:06.972Z,43.33
2018-11-06T03:48:36.769Z,41.93
2018-11-06T03:51:07.470Z,42.73
2018-11-06T03:53:37.420Z,42.80
2018-11-06T03:56:08.767Z,42.93
2018-11-06T03:58:38.449Z,43.33
2018-11-06T04:01:08.489Z,47.07
2018-11-06T04:03:41.279Z,46.93
2018-11-06T04:06:11.636Z,43.47
2018-11-06T04:08:41.983Z,43.63
2018-11-06T04:11:11.828Z,43.67
2018-11-06T04:13:41.782Z,43.03
2018-11-06T04:16:11.520Z,47.73
2018-11-06T04:18:41.247Z,45.10
2018-11-06T04:21:11.002Z,42.93
2018-11-06T04:23:40.793Z,44.50
2018-11-06T04:26:11.303Z,43.77
2018-11-06T04:28:41.363Z,45.27
2018-11-06T04:31:11.199Z,45.27
2018-11-06T04:33:40.879Z,47.60
2018-11-06T04:36:11.717Z,45.97
2018-11-06T04:38:41.475Z,45.53
2018-11-06T04:41:11.204Z,44.57
2018-11-06T04:43:41.498Z,47.83
2018-11-06T04:46:11.193Z,45.07
2018-11-06T04:48:40.971Z,46.23
2018-11-06T04:51:10.810Z,46.87
2018-11-06T04:53:41.215Z,43.83
2018-11-06T04:56:10.986Z,44.90
2018-11-06T04:58:40.778Z,44.47
2018-11-06T05:01:10.571Z,44.63
2018-11-06T05:03:45.318Z,45.33
2018-11-06T05:06:15.750Z,47.23
2018-11-06T05:08:45.754Z,46.03
2018-11-06T05:11:15.780Z,43.70
2018-11-06T05:13:45.865Z,44.20
2018-11-06T05:16:15.825Z,41.37
2018-11-06T05:18:45.618Z,47.27
2018-11-06T05:21:15.348Z,46.37
2018-11-06T05:23:45.189Z,48.67
2018-11-06T05:26:15.059Z,46.30
2018-11-06T05:28:44.838Z,47.87
2018-11-06T05:31:14.566Z,46.67
2018-11-06T05:33:44.412Z,47.83
2018-11-06T05:36:14.148Z,46.43
2018-11-06T05:38:43.894Z,45.63
2018-11-06T05:41:13.730Z,45.83
2018-11-06T05:43:43.477Z,43.63
2018-11-06T05:46:13.400Z,43.17
2018-11-06T05:48:43.558Z,43.87
2018-11-06T05:51:13.405Z,43.60
2018-11-06T05:53:44.134Z,42.13
2018-11-06T05:56:14.307Z,44.10
2018-11-06T05:58:44.173Z,44.23
2018-11-06T06:01:14.314Z,43.43
2018-11-06T06:03:45.034Z,43.27
2018-11-06T06:06:15.546Z,45.93
2018-11-06T06:08:46.182Z,45.80
2018-11-06T06:11:16.348Z,45.53
2018-11-06T06:13:46.064Z,45.47
2018-11-06T06:16:16.294Z,44.30
2018-11-06T06:18:46.128Z,43.67
2018-11-06T06:21:16.248Z,45.43
2018-11-06T06:23:46.449Z,49.17
2018-11-06T06:26:16.537Z,47.30
2018-11-06T06:28:46.580Z,45.47
2018-11-06T06:31:16.549Z,46.57
2018-11-06T06:33:46.348Z,47.47
2018-11-06T06:36:16.153Z,44.60
2018-11-06T06:38:46.014Z,44.13
2018-11-06T06:41:15.813Z,44.03
2018-11-06T06:43:45.583Z,44.73
2018-11-06T06:46:15.402Z,44.83
2018-11-06T06:48:45.191Z,43.77
2018-11-06T06:51:15.191Z,44.90
2018-11-06T06:53:44.994Z,44.73
2018-11-06T06:56:14.933Z,42.20
2018-11-06T06:58:45.465Z,39.73
2018-11-06T07:01:15.263Z,41.57
2018-11-06T07:03:45.928Z,38.70
2018-11-06T07:06:15.983Z,38.10
2018-11-06T07:08:45.896Z,38.27
2018-11-06T07:11:16.172Z,37.77
2018-11-06T07:13:46.801Z,36.77
2018-11-06T07:16:16.572Z,36.03
2018-11-06T07:18:47.010Z,35.33
2018-11-06T07:21:16.830Z,35.03
2018-11-06T07:23:46.691Z,33.47
2018-11-06T07:26:17.371Z,32.60
2018-11-06T07:28:47.598Z,31.63
2018-11-06T07:31:17.917Z,32.83
2018-11-06T07:33:47.813Z,32.53
2018-11-06T07:36:18.424Z,31.77
2018-11-06T07:38:48.278Z,31.57
2018-11-06T07:41:18.805Z,31.40
2018-11-06T07:43:48.500Z,30.13
2018-11-06T07:46:18.306Z,30.33
2018-11-06T07:48:48.097Z,30.33
2018-11-06T07:51:18.150Z,29.47
2018-11-06T07:53:47.861Z,28.23
2018-11-06T07:56:17.843Z,27.90
2018-11-06T07:58:47.458Z,28.80
2018-11-06T08:01:17.865Z,27.77
2018-11-06T08:03:47.668Z,26.97
2018-11-06T08:06:17.600Z,26.70
2018-11-06T08:08:48.027Z,28.27
2018-11-06T08:11:17.801Z,27.03
2018-11-06T08:13:48.523Z,26.10
2018-11-06T08:16:18.372Z,26.63
2018-11-06T08:18:48.167Z,28.23
2018-11-06T08:21:18.172Z,27.27
2018-11-06T08:23:48.088Z,28.10
2018-11-06T08:26:17.805Z,28.23
2018-11-06T08:28:47.593Z,28.23
2018-11-06T08:31:17.750Z,28.60
2018-11-06T08:33:47.302Z,27.13
2018-11-06T08:36:17.157Z,29.50
2018-11-06T08:38:46.953Z,29.20
2018-11-06T08:41:16.797Z,28.97
2018-11-06T08:43:46.663Z,27.00
2018-11-06T08:46:16.363Z,26.83
2018-11-06T08:48:46.516Z,26.87
2018-11-06T08:51:16.367Z,26.03
2018-11-06T08:53:46.512Z,25.87
2018-11-06T08:56:16.741Z,23.73
2018-11-06T08:58:46.988Z,25.03
2018-11-06T09:01:17.010Z,25.00
2018-11-06T09:03:47.200Z,23.77
2018-11-06T09:06:17.410Z,23.57
2018-11-06T09:08:47.638Z,22.80
2018-11-06T09:11:17.757Z,23.03
2018-11-06T09:13:48.031Z,23.40
2018-11-06T09:16:18.508Z,22.77
2018-11-06T09:18:49.584Z,22.67
2018-11-06T09:21:20.368Z,21.60
2018-11-06T09:23:50.340Z,22.80
2018-11-06T09:26:20.413Z,22.73
2018-11-06T09:28:50.278Z,22.70
2018-11-06T09:31:20.594Z,22.40
2018-11-06T09:33:50.477Z,22.77
2018-11-06T09:36:20.413Z,23.33
2018-11-06T09:38:50.595Z,23.30
2018-11-06T09:41:20.474Z,22.87
2018-11-06T09:43:51.399Z,22.93
2018-11-06T09:46:21.214Z,23.83
2018-11-06T09:48:51.061Z,23.63
2018-11-06T09:51:20.905Z,22.83
2018-11-06T09:53:51.151Z,22.33
2018-11-06T09:56:21.105Z,22.20
2018-11-06T09:58:51.692Z,22.57
2018-11-06T10:01:21.757Z,24.17
2018-11-06T10:03:52.044Z,22.27
2018-11-06T10:06:22.006Z,23.53
2018-11-06T10:08:51.956Z,22.27
2018-11-06T10:11:21.826Z,22.90
2018-11-06T10:13:52.797Z,22.57
2018-11-06T10:16:22.640Z,22.67
2018-11-06T10:18:53.192Z,22.73
2018-11-06T10:21:23.044Z,22.50
2018-11-06T10:23:53.102Z,22.57
2018-11-06T10:26:22.953Z,23.27
2018-11-06T10:28:53.114Z,22.57
2018-11-06T10:31:23.013Z,22.30
2018-11-06T10:33:53.201Z,21.80
2018-11-06T10:36:23.027Z,21.90
2018-11-06T10:38:53.320Z,22.13
2018-11-06T10:41:23.142Z,21.63
2018-11-06T10:43:53.193Z,20.50
2018-11-06T10:46:23.840Z,22.13
2018-11-06T10:48:54.192Z,21.43
2018-11-06T10:51:23.996Z,20.87
2018-11-06T10:53:54.163Z,20.83
2018-11-06T10:56:23.942Z,19.77
2018-11-06T10:58:54.388Z,19.40
2018-11-06T11:01:29.758Z,20.10
2018-11-06T11:04:04.728Z,20.73
2018-11-06T11:06:43.604Z,19.27
2018-11-06T11:09:13.505Z,20.37
2018-11-06T11:11:43.303Z,20.17
2018-11-06T11:14:13.107Z,19.60
2018-11-06T11:16:42.892Z,19.50
2018-11-06T11:19:13.807Z,19.07
2018-11-06T11:21:43.656Z,19.10
2018-11-06T11:24:13.582Z,19.40
2018-11-06T11:26:43.508Z,19.30
2018-11-06T11:29:20.033Z,20.10
2018-11-06T11:31:49.936Z,20.07
2018-11-06T11:34:19.899Z,19.60
2018-11-06T11:36:49.742Z,20.30
2018-11-06T11:39:19.487Z,18.93
2018-11-06T11:41:49.228Z,19.03
2018-11-06T11:44:18.956Z,19.03
2018-11-06T11:46:48.820Z,19.10
2018-11-06T11:49:18.799Z,19.53
2018-11-06T11:51:48.767Z,20.40
2018-11-06T11:54:19.220Z,19.63
2018-11-06T11:56:49.194Z,19.73
2018-11-06T11:59:19.092Z,18.30
2018-11-06T12:01:49.107Z,18.17
2018-11-06T12:04:19.186Z,18.83
2018-11-06T12:06:48.961Z,18.73
2018-11-06T12:09:18.834Z,18.57
2018-11-06T12:11:48.895Z,18.77
2018-11-06T12:14:18.803Z,18.73
2018-11-06T12:16:48.535Z,19.27
2018-11-06T12:19:18.340Z,18.50
2018-11-06T12:21:48.140Z,18.50
2018-11-06T12:24:18.023Z,18.83
2018-11-06T12:26:47.761Z,18.70
2018-11-06T12:29:17.492Z,19.13
2018-11-06T12:31:47.339Z,19.77
2018-11-06T12:34:17.133Z,19.07
2018-11-06T12:36:47.158Z,19.47
2018-11-06T12:39:17.071Z,19.00
2018-11-06T12:41:46.961Z,19.30
2018-11-06T12:44:16.621Z,19.93
2018-11-06T12:46:46.467Z,18.13
2018-11-06T12:49:16.320Z,18.97
2018-11-06T12:51:46.879Z,19.70
2018-11-06T12:54:16.986Z,19.83
2018-11-06T12:56:46.963Z,19.43
2018-11-06T12:59:16.836Z,20.03
2018-11-06T13:01:46.681Z,19.20
2018-11-06T13:04:17.034Z,19.90
2018-11-06T13:06:46.965Z,19.03
2018-11-06T13:09:16.943Z,19.80
2018-11-06T13:11:46.802Z,19.50
2018-11-06T13:14:16.794Z,20.27
2018-11-06T13:16:46.825Z,19.83
2018-11-06T13:19:17.454Z,19.30
2018-11-06T13:21:47.304Z,19.10
2018-11-06T13:24:17.473Z,19.83
2018-11-06T13:26:47.323Z,19.93
2018-11-06T13:29:17.111Z,19.17
2018-11-06T13:31:47.036Z,19.77
2018-11-06T13:34:16.889Z,19.37
2018-11-06T13:36:47.108Z,19.07
2018-11-06T13:39:17.189Z,18.30
2018-11-06T13:41:47.084Z,19.17
2018-11-06T13:44:17.369Z,18.97
2018-11-06T13:46:47.519Z,19.60
2018-11-06T13:49:17.429Z,18.67
2018-11-06T13:51:47.159Z,18.80
2018-11-06T13:54:17.004Z,19.07
2018-11-06T13:56:47.024Z,18.30
2018-11-06T13:59:17.082Z,18.90
2018-11-06T14:01:47.365Z,19.57
2018-11-06T14:04:17.817Z,19.90
2018-11-06T14:06:47.755Z,19.60
2018-11-06T14:09:17.550Z,20.77
2018-11-06T14:11:47.398Z,19.80
2018-11-06T14:14:17.272Z,19.37
2018-11-06T14:16:47.087Z,19.00
2018-11-06T14:19:16.863Z,19.63
2018-11-06T14:21:47.036Z,19.83
2018-11-06T14:24:16.930Z,20.10
2018-11-06T14:26:47.636Z,19.30
2018-11-06T14:29:17.552Z,19.90
2018-11-06T14:31:47.617Z,20.07
2018-11-06T14:34:18.273Z,19.63
2018-11-06T14:36:48.822Z,19.93
2018-11-06T14:39:18.660Z,20.67
2018-11-06T14:41:48.734Z,20.77
2018-11-06T14:44:18.983Z,20.47
2018-11-06T14:46:49.224Z,19.73
2018-11-06T14:49:19.237Z,20.67
2018-11-06T14:51:49.222Z,20.57
2018-11-06T14:54:19.152Z,20.77
2018-11-06T14:56:48.980Z,19.30
2018-11-06T14:59:18.970Z,25.93
2018-11-06T15:01:48.834Z,20.50
2018-11-06T15:04:18.741Z,20.50
2018-11-06T15:06:48.699Z,19.90
2018-11-06T15:09:18.450Z,20.43
2018-11-06T15:11:48.371Z,21.10
2018-11-06T15:14:19.581Z,20.30
2018-11-06T15:16:49.580Z,20.03
2018-11-06T15:19:19.388Z,21.73
2018-11-06T15:21:49.154Z,20.73
2018-11-06T15:24:18.969Z,20.47
2018-11-06T15:26:48.864Z,21.67
2018-11-06T15:29:18.865Z,20.13
2018-11-06T15:31:48.688Z,20.60
2018-11-06T15:34:18.787Z,20.87
2018-11-06T15:36:49.164Z,20.13
2018-11-06T15:39:19.022Z,20.10
2018-11-06T15:41:48.956Z,22.00
2018-11-06T15:44:18.720Z,22.37
2018-11-06T15:46:48.457Z,23.70
2018-11-06T15:49:18.377Z,22.30
2018-11-06T15:51:48.209Z,23.30
2018-11-06T15:54:18.387Z,21.73
2018-11-06T15:56:48.227Z,23.03
2018-11-06T15:59:18.268Z,23.17
2018-11-06T16:01:48.241Z,23.37
2018-11-06T16:04:18.528Z,24.20
2018-11-06T16:06:48.248Z,24.50
2018-11-06T16:09:18.403Z,25.70
2018-11-06T16:11:48.221Z,25.57
2018-11-06T16:14:18.367Z,25.40
2018-11-06T16:16:48.270Z,25.60
2018-11-06T16:19:18.618Z,25.07
2018-11-06T16:21:48.345Z,25.07
2018-11-06T16:24:18.453Z,25.67
2018-11-06T16:26:48.191Z,26.47
2018-11-06T16:29:18.389Z,26.40
2018-11-06T16:31:48.168Z,26.37
2018-11-06T16:34:18.108Z,26.83
2018-11-06T16:36:47.886Z,38.33
2018-11-06T16:39:18.143Z,29.77
2018-11-06T16:41:47.936Z,29.30
2018-11-06T16:44:17.862Z,30.43
2018-11-06T16:46:47.822Z,29.67
2018-11-06T16:49:17.908Z,30.20
2018-11-06T16:51:48.280Z,29.90
2018-11-06T16:54:18.282Z,29.87
2018-11-06T16:56:48.156Z,30.77
2018-11-06T16:59:18.146Z,30.47
2018-11-06T17:01:48.040Z,31.50
2018-11-06T17:04:17.818Z,32.60
2018-11-06T17:06:48.373Z,34.13
2018-11-06T17:09:18.712Z,34.20
2018-11-06T17:11:48.647Z,32.57
2018-11-06T17:14:18.739Z,31.87
2018-11-06T17:16:48.747Z,31.27
2018-11-06T17:19:18.790Z,31.83
2018-11-06T17:21:48.634Z,31.00
2018-11-06T17:24:18.594Z,31.17
2018-11-06T17:26:48.349Z,32.00
2018-11-06T17:29:18.479Z,33.07
2018-11-06T17:31:48.280Z,31.27
2018-11-06T17:34:18.157Z,34.70
2018-11-06T17:36:47.982Z,32.67
2018-11-06T17:39:18.513Z,34.70
2018-11-06T17:41:48.296Z,34.50
2018-11-06T17:44:18.185Z,37.83
2018-11-06T17:46:48.036Z,37.47
2018-11-06T17:49:17.785Z,37.70
2018-11-06T17:51:47.729Z,36.40
2018-11-06T17:54:17.614Z,37.60
2018-11-06T17:56:47.467Z,35.47
2018-11-06T17:59:17.305Z,38.87
2018-11-06T18:01:47.152Z,39.30
2018-11-06T18:04:17.062Z,39.07
2018-11-06T18:06:46.843Z,39.87
2018-11-06T18:09:16.701Z,38.87
2018-11-06T18:11:46.641Z,40.00
2018-11-06T18:14:16.448Z,39.90
2018-11-06T18:16:46.267Z,40.63
2018-11-06T18:19:16.297Z,40.00
2018-11-06T18:21:46.172Z,41.50
2018-11-06T18:24:15.978Z,40.67
2018-11-06T18:26:45.894Z,40.73
2018-11-06T18:29:15.702Z,41.50
2018-11-06T18:31:45.722Z,42.80
2018-11-06T18:34:15.425Z,42.87
2018-11-06T18:36:45.242Z,44.13
2018-11-06T18:39:15.645Z,42.73
2018-11-06T18:41:45.520Z,42.43
2018-11-06T18:44:15.407Z,52.57
2018-11-06T18:46:45.320Z,47.47
2018-11-06T18:49:15.171Z,44.33
2018-11-06T18:51:45.083Z,40.93
2018-11-06T18:54:14.920Z,46.43
2018-11-06T18:56:44.771Z,40.30
2018-11-06T18:59:14.744Z,44.07
2018-11-06T19:01:44.642Z,42.23
2018-11-06T19:04:14.536Z,39.43
2018-11-06T19:06:44.461Z,39.73
2018-11-06T19:09:14.305Z,41.20
2018-11-06T19:11:44.110Z,42.43
2018-11-06T19:14:13.952Z,41.90
2018-11-06T19:16:43.898Z,42.20
2018-11-06T19:19:13.916Z,41.40
2018-11-06T19:21:43.794Z,41.20
2018-11-06T19:24:14.006Z,39.63
2018-11-06T19:26:43.776Z,40.63
2018-11-06T19:29:13.886Z,41.63
2018-11-06T19:31:43.878Z,41.07
2018-11-06T19:34:13.867Z,40.70
2018-11-06T19:36:43.821Z,38.97
2018-11-06T19:39:14.167Z,42.63
2018-11-06T19:41:44.386Z,40.33
2018-11-06T19:44:14.415Z,43.07
2018-11-06T19:46:44.389Z,43.93
2018-11-06T19:49:14.614Z,41.70
2018-11-06T19:51:44.659Z,42.63
2018-11-06T19:54:14.715Z,41.10
2018-11-06T19:56:44.675Z,40.50
2018-11-06T19:59:14.430Z,43.40
2018-11-06T20:01:44.381Z,41.07
2018-11-06T20:04:14.313Z,40.20
2018-11-06T20:06:44.283Z,41.10
2018-11-06T20:09:14.216Z,38.77
2018-11-06T20:11:44.162Z,39.27
2018-11-06T20:14:14.126Z,38.37
2018-11-06T20:16:43.972Z,37.80
2018-11-06T20:19:14.095Z,37.10
2018-11-06T20:21:44.165Z,36.63
2018-11-06T20:24:14.188Z,35.73
2018-11-06T20:26:44.524Z,35.67
2018-11-06T20:29:14.851Z,35.90
2018-11-06T20:31:45.085Z,37.10
2018-11-06T20:34:15.187Z,35.10
2018-11-06T20:36:45.054Z,34.60
2018-11-06T20:39:15.127Z,36.47
2018-11-06T20:41:45.152Z,34.10
2018-11-06T20:44:15.231Z,35.77
2018-11-06T20:46:45.205Z,37.00
2018-11-06T20:49:15.461Z,37.03
2018-11-06T20:51:45.518Z,32.67
2018-11-06T20:54:15.797Z,32.20
2018-11-06T20:56:46.013Z,33.43
2018-11-06T20:59:16.253Z,33.93
2018-11-06T21:01:46.260Z,32.80
2018-11-06T21:04:16.406Z,30.70
2018-11-06T21:06:46.417Z,32.57
2018-11-06T21:09:16.430Z,30.40
2018-11-06T21:11:46.492Z,30.97
2018-11-06T21:14:16.550Z,31.67
2018-11-06T21:16:46.798Z,31.33
2018-11-06T21:19:17.058Z,30.60
2018-11-06T21:21:47.218Z,28.93
2018-11-06T21:24:17.372Z,31.03
2018-11-06T21:26:47.450Z,30.10
2018-11-06T21:29:17.567Z,29.67
2018-11-06T21:31:47.625Z,30.60
2018-11-06T21:34:17.639Z,29.63
2018-11-06T21:36:47.721Z,28.37
2018-11-06T21:39:17.728Z,26.47
2018-11-06T21:41:47.655Z,26.87
2018-11-06T21:44:17.507Z,26.67
2018-11-06T21:46:47.387Z,26.53
2018-11-06T21:49:17.230Z,25.27
2018-11-06T21:51:47.200Z,37.07
2018-11-06T21:54:17.160Z,29.47
2018-11-06T21:56:47.060Z,24.67
2018-11-06T21:59:16.992Z,26.83
2018-11-06T22:01:46.806Z,26.30
2018-11-06T22:04:16.766Z,25.63
2018-11-06T22:06:46.715Z,27.03
2018-11-06T22:09:16.486Z,26.57
2018-11-06T22:11:46.959Z,27.70
2018-11-06T22:14:16.919Z,28.30
2018-11-06T22:16:47.033Z,27.90
2018-11-06T22:19:16.839Z,28.13
2018-11-06T22:21:47.260Z,27.40
2018-11-06T22:24:17.256Z,27.70
2018-11-06T22:26:47.498Z,26.90
2018-11-06T22:29:17.572Z,27.63
2018-11-06T22:31:48.061Z,28.17
2018-11-06T22:34:18.280Z,27.43
2018-11-06T22:36:48.324Z,27.47
2018-11-06T22:39:18.317Z,27.63
2018-11-06T22:41:48.627Z,28.63
2018-11-06T22:44:18.789Z,28.70
2018-11-06T22:46:49.156Z,28.17
2018-11-06T22:49:19.067Z,27.33
2018-11-06T22:51:49.516Z,26.30
2018-11-06T22:54:20.541Z,27.73
2018-11-06T22:56:50.667Z,26.20
2018-11-06T22:59:20.745Z,26.37
2018-11-06T23:01:50.808Z,25.43
2018-11-06T23:04:20.803Z,22.57
2018-11-06T23:06:51.688Z,22.73
2018-11-06T23:09:21.916Z,19.97
2018-11-06T23:11:52.155Z,22.03
2018-11-06T23:14:21.981Z,22.67
2018-11-06T23:16:52.456Z,20.53
2018-11-06T23:19:22.373Z,21.33
2018-11-06T23:21:52.840Z,20.03
2018-11-06T23:24:22.618Z,20.63
2018-11-06T23:26:52.853Z,20.50
2018-11-06T23:29:22.673Z,18.27
2018-11-06T23:31:52.836Z,18.17
2018-11-06T23:34:22.630Z,18.03
2018-11-06T23:36:52.776Z,17.23
2018-11-06T23:39:22.471Z,16.93
2018-11-06T23:41:53.057Z,16.37
2018-11-06T23:44:22.807Z,15.87
2018-11-06T23:46:53.069Z,15.60
2018-11-06T23:49:22.865Z,15.00
2018-11-06T23:51:52.949Z,15.43
2018-11-06T23:54:22.775Z,15.20
2018-11-06T23:56:53.319Z,15.77
2018-11-06T23:59:23.035Z,15.03
